Terminal Aerodrome Forecast
Issued by NWS

Home | Current Version | Previous Version | Graphics & Text | Print | Product List | Glossary Off
Versions: 1 2 3 4 5 6 7 8 9 10 11 12 13 14 15 16 17 18 19 20 21 22 23 24 25 26 27

000
FTUS43 KMPX 020500
TAFAXN
TAF
KAXN 020538Z 0206/0306 27005KT P6SM SCT060 BKN150
     FM021700 29006KT P6SM -SHRA SCT020 OVC060
     FM022200 26007KT P6SM SCT040
     FM030400 28012G20KT P6SM BKN030=

USA.gov is the U.S. government's official web portal to all federal, state and local government web resources and services.